Time,TemperatureF,DewpointF,PressureIn,WindDirection,WindDirectionDegrees,WindSpeedMPH,WindSpeedGustMPH,Humidity,HourlyPrecipIn,Conditions,Clouds,dailyrainin,SolarRadiationWatts/m^2,SoftwareType,DateUTC
2013-05-29 00:00:00,73.0,67.0,-100.00,SSW,202,8.0,-999.0,81,0.01,,,-99.99,0.000000,,2013-05-29 04:00:00,
2013-05-29 00:33:00,73.0,67.0,-100.00,SSW,202,8.0,-999.0,81,0.01,,,-99.99,0.000000,,2013-05-29 04:33:00,
2013-05-29 00:42:00,73.0,67.0,-100.00,SSW,202,8.0,-999.0,81,0.01,,,-99.99,0.000000,,2013-05-29 04:42:00,
2013-05-29 00:53:00,73.0,67.0,-100.00,SSW,202,8.0,-999.0,81,0.01,,,-99.99,0.000000,,2013-05-29 04:53:00,
2013-05-29 01:00:00,66.0,63.0,-100.00,SSW,202,5.0,-999.0,90,0.02,,,-99.99,0.000000,,2013-05-29 05:00:00,
2013-05-29 01:33:00,66.0,63.0,-100.00,SSW,202,5.0,-999.0,90,0.02,,,-99.99,0.000000,,2013-05-29 05:33:00,
2013-05-29 01:42:00,66.0,63.0,-100.00,SSW,202,5.0,-999.0,90,0.02,,,-99.99,0.000000,,2013-05-29 05:42:00,
2013-05-29 01:52:00,66.0,63.0,-100.00,SSW,202,5.0,-999.0,90,0.02,,,-99.99,0.000000,,2013-05-29 05:52:00,
2013-05-29 03:00:00,63.0,61.0,-100.00,SW,225,1.0,-999.0,95,-99.99,,,-99.99,0.000000,,2013-05-29 07:00:00,
2013-05-29 03:35:00,63.0,61.0,-100.00,SW,225,1.0,-999.0,95,-99.99,,,-99.99,0.000000,,2013-05-29 07:35:00,
2013-05-29 03:42:00,63.0,61.0,-100.00,SW,225,1.0,-999.0,95,-99.99,,,-99.99,0.000000,,2013-05-29 07:42:00,
2013-05-29 03:53:00,63.0,61.0,-100.00,SW,225,1.0,-999.0,95,-99.99,,,-99.99,0.000000,,2013-05-29 07:53:00,
2013-05-29 04:00:00,63.0,62.0,-100.00,SSW,202,2.0,-999.0,96,-99.99,,,-99.99,0.000000,,2013-05-29 08:00:00,
2013-05-29 04:32:00,63.0,62.0,-100.00,SSW,202,2.0,-999.0,96,-99.99,,,-99.99,0.000000,,2013-05-29 08:32:00,
2013-05-29 04:42:00,63.0,62.0,-100.00,SSW,202,2.0,-999.0,96,-99.99,,,-99.99,0.000000,,2013-05-29 08:42:00,
2013-05-29 04:52:00,63.0,62.0,-100.00,SSW,202,2.0,-999.0,96,-99.99,,,-99.99,0.000000,,2013-05-29 08:52:00,
2013-05-29 05:00:00,65.0,63.0,-100.00,SW,225,4.0,-999.0,94,-99.99,,,-99.99,0.000000,,2013-05-29 09:00:00,
2013-05-29 05:33:00,65.0,63.0,-100.00,SW,225,4.0,-999.0,94,-99.99,,,-99.99,0.000000,,2013-05-29 09:33:00,
2013-05-29 05:42:00,65.0,63.0,-100.00,SW,225,4.0,-999.0,94,-99.99,,,-99.99,0.000000,,2013-05-29 09:42:00,
2013-05-29 05:53:00,65.0,63.0,-100.00,SW,225,4.0,-999.0,94,-99.99,,,-99.99,0.000000,,2013-05-29 09:53:00,
2013-05-29 06:00:00,67.0,65.0,-100.00,SSW,202,6.0,-999.0,92,0.06,,,-99.99,0.000000,,2013-05-29 10:00:00,
2013-05-29 06:33:00,67.0,65.0,-100.00,SSW,202,6.0,-999.0,92,0.06,,,-99.99,0.000000,,2013-05-29 10:33:00,
2013-05-29 06:42:00,67.0,65.0,-100.00,SSW,202,6.0,-999.0,92,0.06,,,-99.99,0.000000,,2013-05-29 10:42:00,
2013-05-29 06:53:00,67.0,65.0,-100.00,SSW,202,6.0,-999.0,92,0.06,,,-99.99,0.000000,,2013-05-29 10:53:00,
2013-05-29 07:00:00,67.0,66.0,-100.00,SSW,202,4.0,-999.0,93,-99.99,,,-99.99,13.920000,,2013-05-29 11:00:00,
2013-05-29 07:32:00,67.0,66.0,-100.00,SSW,202,4.0,-999.0,93,-99.99,,,-99.99,13.920000,,2013-05-29 11:32:00,
2013-05-29 07:42:00,67.0,66.0,-100.00,SSW,202,4.0,-999.0,93,-99.99,,,-99.99,13.920000,,2013-05-29 11:42:00,
2013-05-29 07:52:00,67.0,66.0,-100.00,SSW,202,4.0,-999.0,93,-99.99,,,-99.99,13.920000,,2013-05-29 11:52:00,
2013-05-29 08:00:00,68.0,65.0,-100.00,SW,225,6.0,-999.0,90,-99.99,,,-99.99,85.839996,,2013-05-29 12:00:00,
2013-05-29 08:32:00,68.0,65.0,-100.00,SW,225,6.0,-999.0,90,-99.99,,,-99.99,85.839996,,2013-05-29 12:32:00,
2013-05-29 08:42:00,68.0,65.0,-100.00,SW,225,6.0,-999.0,90,-99.99,,,-99.99,85.839996,,2013-05-29 12:42:00,
2013-05-29 08:52:00,68.0,65.0,-100.00,SW,225,6.0,-999.0,90,-99.99,,,-99.99,85.839996,,2013-05-29 12:52:00,
2013-05-29 09:00:00,71.0,64.0,-100.00,SW,225,5.0,-999.0,80,-99.99,,,-99.99,190.240005,,2013-05-29 13:00:00,
2013-05-29 09:32:00,71.0,64.0,-100.00,SW,225,5.0,-999.0,80,-99.99,,,-99.99,190.240005,,2013-05-29 13:32:00,
2013-05-29 09:42:00,71.0,64.0,-100.00,SW,225,5.0,-999.0,80,-99.99,,,-99.99,190.240005,,2013-05-29 13:42:00,
2013-05-29 09:53:00,71.0,64.0,-100.00,SW,225,5.0,-999.0,80,-99.99,,,-99.99,190.240005,,2013-05-29 13:53:00,
2013-05-29 10:00:00,71.0,63.0,-100.00,SW,225,5.0,-999.0,76,-99.99,,,-99.99,293.480011,,2013-05-29 14:00:00,
2013-05-29 10:32:00,71.0,63.0,-100.00,SW,225,5.0,-999.0,76,-99.99,,,-99.99,293.480011,,2013-05-29 14:32:00,
2013-05-29 10:42:00,71.0,63.0,-100.00,SW,225,5.0,-999.0,76,-99.99,,,-99.99,293.480011,,2013-05-29 14:42:00,
2013-05-29 10:52:00,71.0,63.0,-100.00,SW,225,5.0,-999.0,76,-99.99,,,-99.99,293.480011,,2013-05-29 14:52:00,
2013-05-29 11:00:00,74.0,65.0,-100.00,SW,225,6.0,-999.0,71,-99.99,,,-99.99,599.719971,,2013-05-29 15:00:00,
2013-05-29 11:33:00,74.0,65.0,-100.00,SW,225,6.0,-999.0,71,-99.99,,,-99.99,599.719971,,2013-05-29 15:33:00,
2013-05-29 11:43:00,74.0,65.0,-100.00,SW,225,6.0,-999.0,71,-99.99,,,-99.99,599.719971,,2013-05-29 15:43:00,
2013-05-29 11:53:00,74.0,65.0,-100.00,SW,225,6.0,-999.0,71,-99.99,,,-99.99,599.719971,,2013-05-29 15:53:00,
2013-05-29 12:00:00,77.0,64.0,-100.00,WSW,247,6.0,-999.0,64,-99.99,,,-99.99,583.479980,,2013-05-29 16:00:00,
2013-05-29 12:33:00,77.0,64.0,-100.00,WSW,247,6.0,-999.0,64,-99.99,,,-99.99,583.479980,,2013-05-29 16:33:00,
2013-05-29 12:42:00,77.0,64.0,-100.00,WSW,247,6.0,-999.0,64,-99.99,,,-99.99,583.479980,,2013-05-29 16:42:00,
2013-05-29 12:52:00,77.0,64.0,-100.00,WSW,247,6.0,-999.0,64,-99.99,,,-99.99,583.479980,,2013-05-29 16:52:00,
2013-05-29 13:00:00,77.0,64.0,-100.00,WSW,247,4.0,-999.0,65,-99.99,,,-99.99,286.519989,,2013-05-29 17:00:00,
2013-05-29 13:33:00,77.0,64.0,-100.00,WSW,247,4.0,-999.0,65,-99.99,,,-99.99,286.519989,,2013-05-29 17:33:00,
2013-05-29 13:43:00,77.0,64.0,-100.00,WSW,247,4.0,-999.0,65,-99.99,,,-99.99,286.519989,,2013-05-29 17:43:00,
2013-05-29 13:52:00,77.0,64.0,-100.00,WSW,247,4.0,-999.0,65,-99.99,,,-99.99,286.519989,,2013-05-29 17:52:00,
2013-05-29 14:00:00,75.0,64.0,-100.00,West,270,1.0,-999.0,69,-99.99,,,-99.99,227.360001,,2013-05-29 18:00:00,
2013-05-29 14:32:00,75.0,64.0,-100.00,West,270,1.0,-999.0,69,-99.99,,,-99.99,227.360001,,2013-05-29 18:32:00,
2013-05-29 14:42:00,75.0,64.0,-100.00,West,270,1.0,-999.0,69,-99.99,,,-99.99,227.360001,,2013-05-29 18:42:00,
2013-05-29 14:52:00,75.0,64.0,-100.00,West,270,1.0,-999.0,69,-99.99,,,-99.99,227.360001,,2013-05-29 18:52:00,
2013-05-29 15:00:00,77.0,67.0,-100.00,SSW,202,2.0,-999.0,69,-99.99,,,-99.99,431.519989,,2013-05-29 19:00:00,
2013-05-29 15:32:00,77.0,67.0,-100.00,SSW,202,2.0,-999.0,69,-99.99,,,-99.99,431.519989,,2013-05-29 19:32:00,
2013-05-29 15:44:00,77.0,67.0,-100.00,SSW,202,2.0,-999.0,69,-99.99,,,-99.99,431.519989,,2013-05-29 19:44:00,
2013-05-29 15:53:00,77.0,67.0,-100.00,SSW,202,2.0,-999.0,69,-99.99,,,-99.99,431.519989,,2013-05-29 19:53:00,
2013-05-29 16:00:00,79.0,69.0,-100.00,SW,225,5.0,-999.0,72,-99.99,,,-99.99,574.200012,,2013-05-29 20:00:00,
2013-05-29 16:33:00,79.0,69.0,-100.00,SW,225,5.0,-999.0,72,-99.99,,,-99.99,574.200012,,2013-05-29 20:33:00,
2013-05-29 16:42:00,79.0,69.0,-100.00,SW,225,5.0,-999.0,72,-99.99,,,-99.99,574.200012,,2013-05-29 20:42:00,
2013-05-29 16:53:00,79.0,69.0,-100.00,SW,225,5.0,-999.0,72,-99.99,,,-99.99,574.200012,,2013-05-29 20:53:00,
2013-05-29 17:00:00,81.0,69.0,-100.00,SW,225,3.0,-999.0,67,-99.99,,,-99.99,429.200012,,2013-05-29 21:00:00,
2013-05-29 17:33:00,81.0,69.0,-100.00,SW,225,3.0,-999.0,67,-99.99,,,-99.99,429.200012,,2013-05-29 21:33:00,
2013-05-29 17:44:00,81.0,69.0,-100.00,SW,225,3.0,-999.0,67,-99.99,,,-99.99,429.200012,,2013-05-29 21:44:00,
2013-05-29 17:53:00,81.0,69.0,-100.00,SW,225,3.0,-999.0,67,-99.99,,,-99.99,429.200012,,2013-05-29 21:53:00,
2013-05-29 18:00:00,81.0,68.0,-100.00,SW,225,5.0,-999.0,64,-99.99,,,-99.99,382.799988,,2013-05-29 22:00:00,
2013-05-29 18:34:00,81.0,68.0,-100.00,SW,225,5.0,-999.0,64,-99.99,,,-99.99,382.799988,,2013-05-29 22:34:00,
2013-05-29 18:43:00,81.0,68.0,-100.00,SW,225,5.0,-999.0,64,-99.99,,,-99.99,382.799988,,2013-05-29 22:43:00,
2013-05-29 18:53:00,81.0,68.0,-100.00,SW,225,5.0,-999.0,64,-99.99,,,-99.99,382.799988,,2013-05-29 22:53:00,
2013-05-29 19:00:00,80.0,69.0,-100.00,SW,225,3.0,-999.0,68,-99.99,,,-99.99,213.440002,,2013-05-29 23:00:00,
2013-05-29 19:33:00,80.0,69.0,-100.00,SW,225,3.0,-999.0,68,-99.99,,,-99.99,213.440002,,2013-05-29 23:33:00,
2013-05-29 19:43:00,80.0,69.0,-100.00,SW,225,3.0,-999.0,68,-99.99,,,-99.99,213.440002,,2013-05-29 23:43:00,
2013-05-29 19:53:00,80.0,69.0,-100.00,SW,225,3.0,-999.0,68,-99.99,,,-99.99,213.440002,,2013-05-29 23:53:00,
2013-05-29 21:00:00,79.0,66.0,-100.00,SSW,202,2.0,-999.0,65,-99.99,,,-99.99,45.240002,,2013-05-30 01:00:00,
2013-05-29 21:32:00,79.0,66.0,-100.00,SSW,202,2.0,-999.0,65,-99.99,,,-99.99,45.240002,,2013-05-30 01:32:00,
2013-05-29 21:42:00,79.0,66.0,-100.00,SSW,202,2.0,-999.0,65,-99.99,,,-99.99,45.240002,,2013-05-30 01:42:00,
2013-05-29 21:52:00,79.0,66.0,-100.00,SSW,202,2.0,-999.0,65,-99.99,,,-99.99,45.240002,,2013-05-30 01:52:00,
2013-05-29 22:00:00,76.0,64.0,-100.00,SSW,202,2.0,-999.0,66,-99.99,,,-99.99,1.160000,,2013-05-30 02:00:00,
2013-05-29 22:32:00,76.0,64.0,-100.00,SSW,202,2.0,-999.0,66,-99.99,,,-99.99,1.160000,,2013-05-30 02:32:00,
2013-05-29 22:42:00,76.0,64.0,-100.00,SSW,202,2.0,-999.0,66,-99.99,,,-99.99,1.160000,,2013-05-30 02:42:00,
2013-05-29 22:52:00,76.0,64.0,-100.00,SSW,202,2.0,-999.0,66,-99.99,,,-99.99,1.160000,,2013-05-30 02:52:00,
2013-05-29 23:00:00,74.0,65.0,-100.00,South,180,1.0,-999.0,73,-99.99,,,-99.99,1.160000,,2013-05-30 03:00:00,
2013-05-29 23:33:00,74.0,65.0,-100.00,South,180,1.0,-999.0,73,-99.99,,,-99.99,1.160000,,2013-05-30 03:33:00,
2013-05-29 23:43:00,74.0,65.0,-100.00,South,180,1.0,-999.0,73,-99.99,,,-99.99,1.160000,,2013-05-30 03:43:00,
2013-05-29 23:53:00,74.0,65.0,-100.00,South,180,1.0,-999.0,73,-99.99,,,-99.99,1.160000,,2013-05-30 03:53:00,